KAUW/AUW METAR and TAF weather

Enter ICAO airport designator
Station Type Date Time Source
KAUW METAR 2019/10/18 10:54 UTC NOAA

KAUW 181054Z AUTO 11003KT 9SM CLR 01/00 A2999 RMK AO2 SLP171 I1000 T00060000


Station Type Date Time Source
KAUW Decoded METAR 2019/10/18 10:54 UTC NOAA

WAUSAU DOWNTOWN AIRPORT, WI, United States (KAUW) 44-56N 089-37W 362M
Oct 18, 2019 - 06:54 AM EDT / 2019.10.18 1054 UTC
Wind: from the ESE (110 degrees) at 3 MPH (3 KT):0
Visibility: 9 mile(s):0
Sky conditions: clear
Temperature: 33.1 F (0.6 C)
Dew Point: 32.0 F (0.0 C)
Relative Humidity: 95%
Pressure (altimeter): 29.99 in. Hg (1015 hPa)
ob: KAUW 181054Z AUTO 11003KT 9SM CLR 01/00 A2999 RMK AO2 SLP171 I1000 T00060000
cycle: 11

Station Type Date Time Source
KAUW TAF 2019/10/18 12:36 UTC NOAA

TAF KAUW 181134Z 1812/1912 14004KT P6SM SCT150
FM181400 15009G20KT P6SM SCT050
FM190200 17007G17KT P6SM SCT250 WS020/20040KT
FM190900 18005KT P6SM BKN120 WS014/22030KT

Example: see airport list